createdAt,value
2022-11-20T00:01:23.174Z,22.63
2022-11-20T00:03:55.880Z,22.85
2022-11-20T00:06:27.850Z,22.38
2022-11-20T00:11:32.011Z,22.52
2022-11-20T00:14:04.052Z,19.67
2022-11-20T00:16:36.032Z,21.23
2022-11-20T00:19:07.609Z,22.65
2022-11-20T00:21:38.392Z,20.33
2022-11-20T00:24:11.301Z,22.75
2022-11-20T00:26:41.907Z,20.55
2022-11-20T00:29:13.080Z,21.83
2022-11-20T00:31:43.750Z,22.70
2022-11-20T00:34:15.541Z,21.13
2022-11-20T00:36:46.019Z,20.90
2022-11-20T00:39:16.408Z,21.35
2022-11-20T00:41:47.350Z,23.33
2022-11-20T00:44:17.500Z,21.50
2022-11-20T00:46:48.545Z,24.15
2022-11-20T00:49:20.632Z,25.93
2022-11-20T00:51:51.399Z,24.10
2022-11-20T00:54:22.551Z,22.60
2022-11-20T00:56:55.103Z,20.42
2022-11-20T00:59:25.203Z,21.55
2022-11-20T01:01:56.633Z,19.83
2022-11-20T01:04:28.331Z,23.08
2022-11-20T01:06:59.122Z,21.88
2022-11-20T01:09:29.352Z,21.63
2022-11-20T01:12:00.394Z,21.00
2022-11-20T01:14:31.512Z,21.70
2022-11-20T01:19:33.376Z,18.85
2022-11-20T01:22:03.963Z,20.85
2022-11-20T01:24:34.381Z,20.30
2022-11-20T01:27:05.342Z,20.25
2022-11-20T01:29:35.571Z,19.20
2022-11-20T01:32:06.317Z,20.80
2022-11-20T01:34:37.841Z,19.58
2022-11-20T01:37:08.672Z,18.92
2022-11-20T01:39:39.003Z,19.92
2022-11-20T01:42:28.431Z,20.00
2022-11-20T01:45:01.250Z,20.55
2022-11-20T01:47:37.504Z,22.17
2022-11-20T01:50:18.203Z,21.65
2022-11-20T01:52:52.187Z,19.67
2022-11-20T01:55:26.265Z,19.48
2022-11-20T01:57:58.530Z,20.38
2022-11-20T02:00:29.405Z,18.95
2022-11-20T02:03:02.998Z,19.30
2022-11-20T02:05:38.164Z,18.92
2022-11-20T02:08:09.530Z,20.02
2022-11-20T02:10:39.764Z,17.70
2022-11-20T02:13:29.150Z,19.67
2022-11-20T02:16:00.249Z,17.45
2022-11-20T02:21:09.855Z,16.25
2022-11-20T02:23:46.637Z,18.42
2022-11-20T02:26:21.285Z,17.33
2022-11-20T02:28:51.684Z,17.20
2022-11-20T02:31:21.857Z,17.42
2022-11-20T02:33:58.595Z,18.97
2022-11-20T02:36:31.795Z,17.92
2022-11-20T02:39:02.778Z,18.15
2022-11-20T02:41:40.466Z,18.50
2022-11-20T02:44:11.026Z,16.65
2022-11-20T02:46:42.295Z,17.63
2022-11-20T02:51:42.764Z,17.55
2022-11-20T02:54:14.390Z,18.92
2022-11-20T02:56:46.434Z,18.92
2022-11-20T02:59:16.834Z,18.27
2022-11-20T03:01:47.260Z,19.70
2022-11-20T03:04:18.177Z,19.23
2022-11-20T03:06:49.255Z,18.70
2022-11-20T03:11:51.675Z,20.45
2022-11-20T03:14:22.344Z,20.13
2022-11-20T03:16:52.655Z,21.05
2022-11-20T03:19:23.684Z,21.17
2022-11-20T03:21:54.046Z,20.60
2022-11-20T03:24:24.806Z,21.13
2022-11-20T03:26:56.555Z,20.25
2022-11-20T03:29:27.514Z,18.70
2022-11-20T03:31:57.999Z,21.23
2022-11-20T03:34:28.706Z,21.38
2022-11-20T03:36:59.705Z,18.15
2022-11-20T03:39:31.324Z,20.98
2022-11-20T03:42:03.026Z,20.73
2022-11-20T03:44:34.066Z,21.23
2022-11-20T03:47:04.426Z,20.77
2022-11-20T03:49:34.995Z,21.65
2022-11-20T03:52:05.497Z,19.88
2022-11-20T03:54:36.005Z,22.23
2022-11-20T03:57:07.817Z,20.83
2022-11-20T03:59:38.465Z,19.50
2022-11-20T04:02:08.791Z,19.48
2022-11-20T04:04:40.097Z,18.90
2022-11-20T04:07:10.339Z,20.73
2022-11-20T04:09:44.347Z,18.23
2022-11-20T04:12:16.395Z,21.02
2022-11-20T04:14:47.125Z,18.30
2022-11-20T04:17:17.744Z,19.50
2022-11-20T04:19:48.668Z,21.40
2022-11-20T04:22:20.285Z,19.50
2022-11-20T04:24:55.116Z,22.38
2022-11-20T04:27:27.234Z,16.52
2022-11-20T04:29:58.124Z,17.80
2022-11-20T04:32:29.296Z,18.92
2022-11-20T04:37:48.244Z,15.52
2022-11-20T04:40:53.796Z,18.52
2022-11-20T04:43:26.185Z,18.00
2022-11-20T04:46:20.182Z,17.85
2022-11-20T04:48:50.883Z,19.13
2022-11-20T04:51:21.975Z,16.17
2022-11-20T04:53:52.423Z,17.13
2022-11-20T04:56:23.692Z,18.70
2022-11-20T04:58:56.362Z,18.23
2022-11-20T05:01:29.830Z,17.15
2022-11-20T05:03:59.933Z,18.35
2022-11-20T05:06:30.565Z,17.67
2022-11-20T05:09:02.154Z,17.60
2022-11-20T05:11:34.243Z,16.10
2022-11-20T05:14:06.194Z,16.60
2022-11-20T05:16:38.072Z,18.80
2022-11-20T05:21:41.192Z,17.75
2022-11-20T05:24:13.338Z,19.00
2022-11-20T05:26:44.002Z,19.85
2022-11-20T05:29:19.471Z,24.58
2022-11-20T05:31:50.295Z,21.63
2022-11-20T05:34:20.392Z,20.08
2022-11-20T05:36:51.082Z,19.63
2022-11-20T05:39:21.241Z,23.15
2022-11-20T05:42:14.223Z,21.70
2022-11-20T05:44:46.070Z,29.73
2022-11-20T05:47:16.612Z,27.20
2022-11-20T05:49:47.142Z,35.30
2022-11-20T05:52:17.844Z,33.17
2022-11-20T05:54:50.343Z,30.02
2022-11-20T05:57:20.762Z,31.30
2022-11-20T05:59:52.374Z,36.88
2022-11-20T06:02:24.643Z,37.97
2022-11-20T06:04:58.444Z,29.25
2022-11-20T06:07:34.654Z,29.23
2022-11-20T06:10:05.292Z,31.60
2022-11-20T06:12:36.653Z,26.38
2022-11-20T06:15:09.654Z,34.95
2022-11-20T06:17:40.632Z,37.95
2022-11-20T06:20:12.125Z,37.05
2022-11-20T06:22:43.972Z,36.38
2022-11-20T06:25:14.312Z,33.65
2022-11-20T06:27:48.583Z,29.60
2022-11-20T06:30:22.772Z,32.70
2022-11-20T06:32:54.633Z,32.08
2022-11-20T06:35:29.235Z,31.63
2022-11-20T06:37:59.904Z,33.90
2022-11-20T06:40:29.906Z,32.33
2022-11-20T06:43:03.925Z,34.33
2022-11-20T06:45:35.562Z,31.95
2022-11-20T06:48:06.294Z,32.83
2022-11-20T06:50:39.224Z,32.20
2022-11-20T06:53:12.833Z,30.98
2022-11-20T06:55:53.663Z,31.35
2022-11-20T06:58:24.172Z,31.38
2022-11-20T07:00:56.736Z,29.40
2022-11-20T07:03:27.348Z,29.63
2022-11-20T07:06:01.603Z,32.45
2022-11-20T07:08:35.014Z,31.38
2022-11-20T07:13:47.537Z,27.77
2022-11-20T07:16:20.887Z,29.92
2022-11-20T07:18:51.423Z,29.88
2022-11-20T07:21:21.789Z,27.90
2022-11-20T07:23:52.443Z,29.38
2022-11-20T07:26:22.764Z,29.38
2022-11-20T07:28:55.496Z,28.20
2022-11-20T07:31:27.392Z,31.92
2022-11-20T07:33:58.686Z,32.70
2022-11-20T07:36:28.963Z,33.80
2022-11-20T07:39:00.774Z,31.03
2022-11-20T07:41:31.016Z,30.58
2022-11-20T07:44:01.799Z,28.20
2022-11-20T07:46:36.725Z,31.58
2022-11-20T07:49:07.905Z,27.88
2022-11-20T07:51:38.197Z,26.07
2022-11-20T07:54:25.135Z,26.08
2022-11-20T07:56:57.073Z,26.38
2022-11-20T07:59:28.137Z,24.05
2022-11-20T08:02:00.407Z,26.37
2022-11-20T08:04:31.287Z,27.27
2022-11-20T08:07:03.230Z,28.25
2022-11-20T08:09:33.985Z,27.65
2022-11-20T08:12:22.378Z,28.05
2022-11-20T08:14:53.046Z,24.23
2022-11-20T08:17:25.454Z,26.08
2022-11-20T08:19:59.055Z,28.98
2022-11-20T08:22:30.403Z,26.33
2022-11-20T08:25:01.110Z,26.55
2022-11-20T08:27:34.045Z,25.90
2022-11-20T08:30:05.896Z,27.20
2022-11-20T08:32:39.366Z,30.83
2022-11-20T08:35:11.557Z,28.48
2022-11-20T08:37:52.997Z,28.80
2022-11-20T08:40:23.749Z,25.42
2022-11-20T08:42:54.312Z,29.35
2022-11-20T08:45:28.392Z,25.55
2022-11-20T08:48:05.848Z,25.75
2022-11-20T08:50:36.217Z,27.60
2022-11-20T08:53:09.796Z,28.80
2022-11-20T08:55:41.107Z,27.42
2022-11-20T08:58:12.717Z,26.40
2022-11-20T09:00:43.496Z,26.33
2022-11-20T09:03:15.417Z,27.80
2022-11-20T09:05:48.562Z,26.98
2022-11-20T09:08:23.682Z,31.58
2022-11-20T09:10:55.645Z,28.85
2022-11-20T09:13:27.774Z,29.40
2022-11-20T09:15:59.034Z,27.60
2022-11-20T09:18:35.254Z,27.55
2022-11-20T09:21:08.150Z,26.98
2022-11-20T09:23:40.095Z,28.65
2022-11-20T09:26:15.104Z,26.55
2022-11-20T09:28:45.495Z,26.63
2022-11-20T09:31:25.269Z,28.95
2022-11-20T09:33:57.283Z,30.85
2022-11-20T09:36:27.716Z,28.27
2022-11-20T09:38:59.025Z,28.83
2022-11-20T09:41:56.772Z,28.80
2022-11-20T09:44:41.956Z,28.67
2022-11-20T09:47:20.776Z,27.88
2022-11-20T09:50:09.140Z,33.53
2022-11-20T09:52:54.396Z,32.45
2022-11-20T09:55:24.818Z,30.10
2022-11-20T09:57:56.476Z,31.90
2022-11-20T10:00:26.695Z,31.75
2022-11-20T10:03:03.628Z,33.57
2022-11-20T10:05:43.557Z,32.15
2022-11-20T10:08:19.895Z,32.63
2022-11-20T10:10:53.955Z,30.20
2022-11-20T10:13:37.607Z,32.60
2022-11-20T10:16:24.937Z,33.28
2022-11-20T10:19:09.917Z,34.42
2022-11-20T10:21:54.696Z,31.38
2022-11-20T10:24:51.064Z,34.85
2022-11-20T10:27:59.066Z,34.90
2022-11-20T10:30:31.775Z,35.45
2022-11-20T10:33:12.502Z,37.53
2022-11-20T10:35:48.300Z,37.08
2022-11-20T10:38:25.166Z,35.70
2022-11-20T10:41:21.654Z,38.15
2022-11-20T10:43:56.577Z,35.90
2022-11-20T10:46:28.255Z,34.40
2022-11-20T10:48:58.546Z,34.95
2022-11-20T10:51:40.057Z,33.30
2022-11-20T10:54:41.857Z,35.80
2022-11-20T10:57:24.436Z,35.72
2022-11-20T11:00:06.954Z,35.35
2022-11-20T11:02:44.724Z,35.63
2022-11-20T11:05:25.707Z,37.15
2022-11-20T11:07:58.858Z,36.22
2022-11-20T11:10:37.935Z,37.30
2022-11-20T11:13:08.678Z,36.10
2022-11-20T11:15:42.116Z,38.42
2022-11-20T11:18:14.167Z,36.67
2022-11-20T11:20:55.920Z,34.22
2022-11-20T11:23:35.148Z,37.42
2022-11-20T11:26:08.309Z,35.58
2022-11-20T11:28:39.394Z,34.40
2022-11-20T11:31:09.624Z,33.13
2022-11-20T11:33:40.207Z,32.90
2022-11-20T11:36:22.867Z,33.25
2022-11-20T11:38:55.995Z,31.65
2022-11-20T11:41:36.184Z,33.70
2022-11-20T11:44:38.105Z,34.28
2022-11-20T11:47:12.840Z,32.35
2022-11-20T11:49:43.304Z,33.63
2022-11-20T11:52:18.867Z,31.60
2022-11-20T11:54:55.701Z,31.92
2022-11-20T11:57:44.558Z,42.45
2022-11-20T12:00:18.155Z,50.70
2022-11-20T12:03:00.384Z,36.88
2022-11-20T12:05:33.655Z,34.38
2022-11-20T12:08:12.494Z,35.88
2022-11-20T12:10:50.906Z,33.38
2022-11-20T12:13:52.586Z,35.97
2022-11-20T12:16:23.769Z,34.53
2022-11-20T12:18:56.478Z,36.03
2022-11-20T12:21:35.925Z,32.33
2022-11-20T12:24:43.978Z,33.05
2022-11-20T12:28:05.227Z,34.28
2022-11-20T12:30:44.465Z,32.25
2022-11-20T12:33:34.101Z,31.98
2022-11-20T12:36:20.446Z,32.50
2022-11-20T12:39:20.122Z,33.38
2022-11-20T12:42:23.005Z,31.85
2022-11-20T12:45:14.045Z,29.92
2022-11-20T12:48:16.926Z,29.50
2022-11-20T12:51:17.920Z,30.77
2022-11-20T12:54:03.206Z,30.52
2022-11-20T12:56:44.394Z,30.25
2022-11-20T12:59:35.661Z,30.90
2022-11-20T13:02:27.490Z,31.60
2022-11-20T13:05:26.932Z,30.30
2022-11-20T13:07:58.100Z,29.10
2022-11-20T13:10:38.050Z,28.15
2022-11-20T13:13:21.382Z,28.08
2022-11-20T13:15:58.930Z,29.10
2022-11-20T13:18:30.023Z,30.13
2022-11-20T13:21:01.951Z,31.23
2022-11-20T13:23:32.503Z,31.02
2022-11-20T13:26:19.901Z,27.92
2022-11-20T13:29:02.836Z,33.85
2022-11-20T13:31:36.456Z,32.58
2022-11-20T13:34:09.578Z,33.08
2022-11-20T13:36:53.808Z,33.33
2022-11-20T13:39:28.818Z,35.63
2022-11-20T13:42:00.572Z,34.20
2022-11-20T13:44:39.009Z,32.28
2022-11-20T13:47:24.588Z,32.03
2022-11-20T13:49:56.974Z,34.72
2022-11-20T13:52:42.417Z,37.22
2022-11-20T13:55:24.093Z,35.72
2022-11-20T13:58:15.049Z,33.38
2022-11-20T14:00:51.503Z,35.03
2022-11-20T14:03:44.013Z,31.70
2022-11-20T14:06:25.159Z,33.83
2022-11-20T14:08:57.357Z,34.40
2022-11-20T14:11:29.550Z,34.08
2022-11-20T14:14:03.147Z,32.38
2022-11-20T14:16:38.473Z,32.90
2022-11-20T14:19:33.566Z,35.90
2022-11-20T14:22:19.316Z,33.95
2022-11-20T14:24:52.319Z,33.75
2022-11-20T14:27:24.468Z,33.28
2022-11-20T14:29:54.991Z,36.33
2022-11-20T14:32:31.029Z,35.70
2022-11-20T14:35:09.969Z,35.28
2022-11-20T14:37:43.426Z,34.90
2022-11-20T14:40:31.852Z,37.47
2022-11-20T14:43:02.746Z,36.33
2022-11-20T14:45:34.629Z,34.53
2022-11-20T14:48:05.206Z,41.20
2022-11-20T14:50:35.288Z,35.08
2022-11-20T14:53:06.708Z,34.80
2022-11-20T14:55:39.969Z,39.17
2022-11-20T14:58:25.516Z,39.28
2022-11-20T15:01:01.047Z,37.13
2022-11-20T15:03:35.959Z,36.88
2022-11-20T15:06:07.298Z,39.53
2022-11-20T15:08:38.876Z,38.40
2022-11-20T15:11:23.316Z,38.30
2022-11-20T15:13:54.169Z,38.97
2022-11-20T15:16:26.306Z,39.83
2022-11-20T15:18:57.647Z,40.22
2022-11-20T15:21:27.699Z,39.38
2022-11-20T15:23:59.648Z,39.13
2022-11-20T15:29:01.867Z,33.85
2022-11-20T15:31:31.847Z,42.28
2022-11-20T15:34:03.061Z,40.65
2022-11-20T15:36:33.898Z,39.00
2022-11-20T15:39:04.708Z,38.42
2022-11-20T15:41:36.354Z,40.65
2022-11-20T15:44:07.807Z,38.38
2022-11-20T15:46:43.827Z,41.28
2022-11-20T15:49:16.416Z,39.25
2022-11-20T15:51:50.034Z,39.63
2022-11-20T15:54:23.598Z,39.28
2022-11-20T15:56:57.135Z,37.40
2022-11-20T15:59:28.108Z,36.40
2022-11-20T16:01:58.333Z,41.38
2022-11-20T16:04:29.847Z,40.42
2022-11-20T16:07:00.392Z,42.15
2022-11-20T16:09:31.079Z,39.25
2022-11-20T16:12:03.107Z,38.88
2022-11-20T16:14:50.918Z,38.95
2022-11-20T16:17:41.218Z,41.92
2022-11-20T16:20:14.600Z,42.28
2022-11-20T16:22:44.814Z,39.65
2022-11-20T16:25:17.432Z,41.38
2022-11-20T16:27:49.267Z,39.60
2022-11-20T16:30:22.822Z,41.80
2022-11-20T16:32:54.617Z,39.47
2022-11-20T16:35:25.227Z,40.72
2022-11-20T16:37:55.606Z,43.95
2022-11-20T16:40:26.479Z,38.92
2022-11-20T16:42:59.526Z,40.97
2022-11-20T16:45:33.849Z,46.72
2022-11-20T16:48:04.187Z,44.60
2022-11-20T16:50:34.814Z,39.38
2022-11-20T16:53:05.026Z,42.83
2022-11-20T16:55:35.554Z,41.78
2022-11-20T16:58:07.100Z,41.95
2022-11-20T17:00:39.398Z,43.00
2022-11-20T17:03:11.157Z,42.58
2022-11-20T17:05:41.750Z,45.85
2022-11-20T17:08:13.200Z,48.13
2022-11-20T17:10:43.618Z,42.88
2022-11-20T17:13:15.931Z,42.17
2022-11-20T17:15:46.341Z,43.17
2022-11-20T17:18:17.512Z,43.40
2022-11-20T17:20:55.117Z,42.63
2022-11-20T17:23:25.126Z,39.58
2022-11-20T17:26:02.904Z,44.33
2022-11-20T17:28:36.047Z,40.60
2022-11-20T17:31:10.186Z,43.30
2022-11-20T17:33:42.599Z,44.00
2022-11-20T17:36:17.218Z,45.85
2022-11-20T17:38:48.352Z,44.42
2022-11-20T17:41:22.505Z,42.95
2022-11-20T17:43:57.469Z,44.45
2022-11-20T17:46:33.998Z,42.22
2022-11-20T17:49:06.208Z,44.58
2022-11-20T17:51:38.005Z,45.85
2022-11-20T17:54:08.919Z,43.78
2022-11-20T17:56:58.382Z,44.20
2022-11-20T17:59:30.176Z,40.65
2022-11-20T18:02:03.868Z,46.63
2022-11-20T18:04:35.992Z,43.00
2022-11-20T18:07:06.802Z,44.85
2022-11-20T18:09:40.722Z,45.83
2022-11-20T18:12:12.310Z,44.63
2022-11-20T18:14:44.668Z,44.90
2022-11-20T18:17:16.597Z,42.60
2022-11-20T18:20:07.053Z,45.85
2022-11-20T18:22:42.208Z,44.92
2022-11-20T18:25:13.526Z,44.42
2022-11-20T18:27:45.576Z,45.47
2022-11-20T18:30:18.128Z,47.50
2022-11-20T18:32:52.175Z,46.30
2022-11-20T18:35:24.072Z,46.55
2022-11-20T18:37:57.304Z,47.70
2022-11-20T18:40:27.984Z,46.42
2022-11-20T18:45:50.167Z,46.05
2022-11-20T18:48:20.738Z,44.83
2022-11-20T18:50:51.831Z,46.70
2022-11-20T18:53:23.840Z,47.03
2022-11-20T18:55:54.117Z,42.03
2022-11-20T18:58:25.307Z,45.97
2022-11-20T19:00:57.054Z,47.83
2022-11-20T19:03:30.780Z,45.97
2022-11-20T19:06:01.057Z,46.70
2022-11-20T19:08:35.675Z,44.63
2022-11-20T19:11:09.081Z,41.97
2022-11-20T19:13:41.016Z,45.28
2022-11-20T19:16:18.136Z,48.47
2022-11-20T19:18:48.888Z,44.95
2022-11-20T19:21:26.884Z,46.53
2022-11-20T19:24:01.941Z,47.20
2022-11-20T19:26:37.108Z,46.65
2022-11-20T19:29:17.143Z,45.50
2022-11-20T19:31:49.969Z,45.83
2022-11-20T19:34:22.153Z,45.70
2022-11-20T19:36:54.759Z,43.58
2022-11-20T19:39:29.056Z,46.60
2022-11-20T19:42:03.550Z,48.13
2022-11-20T19:48:07.995Z,43.20
2022-11-20T19:50:54.443Z,49.03
2022-11-20T19:53:33.167Z,42.80
2022-11-20T19:56:06.426Z,47.03
2022-11-20T19:58:43.278Z,50.58
2022-11-20T20:01:19.644Z,52.33
2022-11-20T20:03:56.967Z,52.90
2022-11-20T20:06:31.233Z,48.95
2022-11-20T20:09:06.757Z,49.80
2022-11-20T20:11:38.537Z,54.95
2022-11-20T20:14:13.866Z,48.92
2022-11-20T20:16:45.800Z,48.75
2022-11-20T20:21:54.858Z,45.20
2022-11-20T20:24:25.182Z,47.42
2022-11-20T20:26:59.594Z,43.95
2022-11-20T20:29:34.040Z,45.47
2022-11-20T20:32:09.053Z,47.92
2022-11-20T20:34:42.894Z,49.20
2022-11-20T20:37:16.760Z,51.83
2022-11-20T20:39:49.147Z,49.72
2022-11-20T20:42:21.149Z,50.40
2022-11-20T20:45:11.375Z,47.83
2022-11-20T20:47:42.958Z,46.40
2022-11-20T20:50:15.408Z,48.00
2022-11-20T20:52:46.074Z,44.67
2022-11-20T20:55:17.527Z,45.83
2022-11-20T20:57:48.098Z,38.22
2022-11-20T21:00:19.738Z,38.88
2022-11-20T21:02:50.306Z,28.13
2022-11-20T21:05:24.110Z,29.60
2022-11-20T21:08:12.166Z,28.90
2022-11-20T21:10:42.566Z,23.45
2022-11-20T21:13:14.106Z,26.90
2022-11-20T21:15:44.998Z,25.23
2022-11-20T21:18:16.729Z,24.30
2022-11-20T21:23:39.987Z,22.13
2022-11-20T21:26:12.760Z,23.10
2022-11-20T21:28:43.388Z,23.73
2022-11-20T21:31:16.748Z,26.25
2022-11-20T21:33:49.397Z,24.90
2022-11-20T21:36:22.927Z,20.45
2022-11-20T21:38:56.527Z,19.90
2022-11-20T21:41:30.846Z,22.42
2022-11-20T21:46:57.166Z,23.23
2022-11-20T21:49:29.369Z,20.10
2022-11-20T21:57:06.336Z,20.73
2022-11-20T21:59:39.043Z,22.85
2022-11-20T22:02:09.580Z,22.10
2022-11-20T22:04:41.975Z,19.70
2022-11-20T22:07:13.914Z,18.23
2022-11-20T22:09:46.048Z,19.67
2022-11-20T22:12:18.230Z,18.85
2022-11-20T22:14:47.719Z,19.92
2022-11-20T22:17:40.089Z,20.52
2022-11-20T22:20:12.348Z,22.05
2022-11-20T22:22:46.060Z,22.85
2022-11-20T22:25:16.796Z,19.80
2022-11-20T22:27:49.039Z,18.77
2022-11-20T22:30:19.988Z,19.25
2022-11-20T22:32:54.427Z,24.40
2022-11-20T22:35:25.437Z,21.30
2022-11-20T22:37:56.989Z,17.97
2022-11-20T22:40:29.623Z,19.85
2022-11-20T22:43:00.046Z,20.25
2022-11-20T22:45:33.589Z,22.63
2022-11-20T22:48:04.267Z,21.38
2022-11-20T22:50:36.266Z,24.48
2022-11-20T22:55:39.396Z,18.98
2022-11-20T22:58:09.807Z,21.13
2022-11-20T23:00:42.349Z,18.73
2022-11-20T23:03:12.648Z,20.48
2022-11-20T23:05:43.263Z,19.25
2022-11-20T23:08:15.696Z,16.08
2022-11-20T23:10:46.374Z,21.83
2022-11-20T23:13:17.673Z,19.52
2022-11-20T23:15:48.322Z,21.17
2022-11-20T23:18:19.811Z,21.08
2022-11-20T23:20:50.361Z,19.40
2022-11-20T23:23:24.150Z,18.73
2022-11-20T23:25:54.671Z,19.15
2022-11-20T23:28:25.659Z,18.38
2022-11-20T23:30:56.109Z,19.33
2022-11-20T23:33:28.070Z,18.85
2022-11-20T23:35:59.120Z,17.20
2022-11-20T23:38:30.873Z,20.03
2022-11-20T23:41:05.330Z,16.58
2022-11-20T23:43:35.898Z,22.75
2022-11-20T23:46:07.309Z,15.75
2022-11-20T23:48:40.607Z,17.83
2022-11-20T23:51:11.269Z,19.52
2022-11-20T23:53:43.138Z,16.48
2022-11-20T23:56:15.701Z,17.45
2022-11-20T23:58:46.314Z,17.38
